sensor_id;sensor_type;location;lat;lon;timestamp;pressure;altitude;pressure_sealevel;temperature;humidity
26865;BME280;40618;51.166;10.322;2023-12-04T00:01:21;97662.41;;;-4.38;88.59
26865;BME280;40618;51.166;10.322;2023-12-04T00:03:47;97656.44;;;-4.40;88.77
26865;BME280;40618;51.166;10.322;2023-12-04T00:06:13;97655.66;;;-4.37;89.33
26865;BME280;40618;51.166;10.322;2023-12-04T00:08:38;97650.69;;;-4.36;89.32
26865;BME280;40618;51.166;10.322;2023-12-04T00:11:05;97652.41;;;-4.33;89.06
26865;BME280;40618;51.166;10.322;2023-12-04T00:13:31;97646.56;;;-4.32;88.83
26865;BME280;40618;51.166;10.322;2023-12-04T00:15:57;97639.91;;;-4.30;89.33
26865;BME280;40618;51.166;10.322;2023-12-04T00:18:22;97639.06;;;-4.29;89.02
26865;BME280;40618;51.166;10.322;2023-12-04T00:20:48;97636.63;;;-4.28;89.15
26865;BME280;40618;51.166;10.322;2023-12-04T00:23:14;97632.41;;;-4.27;89.16
26865;BME280;40618;51.166;10.322;2023-12-04T00:25:40;97627.44;;;-4.24;89.32
26865;BME280;40618;51.166;10.322;2023-12-04T00:28:05;97630.09;;;-4.21;89.20
26865;BME280;40618;51.166;10.322;2023-12-04T00:30:31;97621.63;;;-4.21;88.91
26865;BME280;40618;51.166;10.322;2023-12-04T00:32:56;97625.88;;;-4.20;89.08
26865;BME280;40618;51.166;10.322;2023-12-04T00:35:22;97621.66;;;-4.20;88.99
26865;BME280;40618;51.166;10.322;2023-12-04T00:37:48;97619.09;;;-4.21;88.89
26865;BME280;40618;51.166;10.322;2023-12-04T00:40:14;97620.81;;;-4.20;89.20
26865;BME280;40618;51.166;10.322;2023-12-04T00:42:39;97615.75;;;-4.20;88.78
26865;BME280;40618;51.166;10.322;2023-12-04T00:45:05;97614.00;;;-4.23;88.59
26865;BME280;40618;51.166;10.322;2023-12-04T00:47:31;97608.94;;;-4.23;88.51
26865;BME280;40618;51.166;10.322;2023-12-04T00:49:57;97604.72;;;-4.22;88.96
26865;BME280;40618;51.166;10.322;2023-12-04T00:52:23;97598.84;;;-4.21;88.74
26865;BME280;40618;51.166;10.322;2023-12-04T00:54:48;97592.16;;;-4.21;88.96
26865;BME280;40618;51.166;10.322;2023-12-04T00:57:14;97595.56;;;-4.19;88.56
26865;BME280;40618;51.166;10.322;2023-12-04T00:59:39;97589.69;;;-4.18;88.87
26865;BME280;40618;51.166;10.322;2023-12-04T01:02:06;97586.41;;;-4.15;89.34
26865;BME280;40618;51.166;10.322;2023-12-04T01:04:33;97581.44;;;-4.12;89.18
26865;BME280;40618;51.166;10.322;2023-12-04T01:06:58;97575.53;;;-4.13;89.25
26865;BME280;40618;51.166;10.322;2023-12-04T01:09:24;97561.97;;;-4.15;89.12
26865;BME280;40618;51.166;10.322;2023-12-04T01:11:53;97563.63;;;-4.17;88.62
26865;BME280;40618;51.166;10.322;2023-12-04T01:14:20;97558.56;;;-4.17;88.48
26865;BME280;40618;51.166;10.322;2023-12-04T01:16:46;97549.31;;;-4.15;88.66
26865;BME280;40618;51.166;10.322;2023-12-04T01:19:12;97555.19;;;-4.16;88.72
26865;BME280;40618;51.166;10.322;2023-12-04T01:21:38;97557.72;;;-4.16;88.87
26865;BME280;40618;51.166;10.322;2023-12-04T01:24:04;97554.34;;;-4.16;88.66
26865;BME280;40618;51.166;10.322;2023-12-04T01:26:30;97547.56;;;-4.17;88.75
26865;BME280;40618;51.166;10.322;2023-12-04T01:28:55;97548.44;;;-4.17;88.65
26865;BME280;40618;51.166;10.322;2023-12-04T01:31:21;97547.72;;;-4.13;88.66
26865;BME280;40618;51.166;10.322;2023-12-04T01:33:46;97545.13;;;-4.14;89.07
26865;BME280;40618;51.166;10.322;2023-12-04T01:36:12;97546.81;;;-4.15;88.97
26865;BME280;40618;51.166;10.322;2023-12-04T01:38:38;97535.00;;;-4.14;88.78
26865;BME280;40618;51.166;10.322;2023-12-04T01:41:05;97540.06;;;-4.14;88.57
26865;BME280;40618;51.166;10.322;2023-12-04T01:43:31;97533.34;;;-4.14;88.91
26865;BME280;40618;51.166;10.322;2023-12-04T01:45:57;97538.31;;;-4.17;89.14
26865;BME280;40618;51.166;10.322;2023-12-04T01:48:25;97540.75;;;-4.20;88.91
26865;BME280;40618;51.166;10.322;2023-12-04T01:50:51;97532.31;;;-4.20;88.77
26865;BME280;40618;51.166;10.322;2023-12-04T01:53:17;97535.66;;;-4.21;88.47
26865;BME280;40618;51.166;10.322;2023-12-04T01:55:43;97528.94;;;-4.21;88.90
26865;BME280;40618;51.166;10.322;2023-12-04T01:58:10;97523.03;;;-4.20;88.85
26865;BME280;40618;51.166;10.322;2023-12-04T02:00:36;97513.03;;;-4.17;88.97
26865;BME280;40618;51.166;10.322;2023-12-04T02:03:02;97517.25;;;-4.16;89.19
26865;BME280;40618;51.166;10.322;2023-12-04T02:05:29;97520.66;;;-4.15;88.92
26865;BME280;40618;51.166;10.322;2023-12-04T02:07:55;97516.50;;;-4.13;89.03
26865;BME280;40618;51.166;10.322;2023-12-04T02:10:21;97516.53;;;-4.12;88.70
26865;BME280;40618;51.166;10.322;2023-12-04T02:12:49;97511.34;;;-4.16;89.03
26865;BME280;40618;51.166;10.322;2023-12-04T02:15:15;97507.97;;;-4.17;88.90
26865;BME280;40618;51.166;10.322;2023-12-04T02:17:43;97512.19;;;-4.16;88.78
26865;BME280;40618;51.166;10.322;2023-12-04T02:20:10;97501.28;;;-4.15;88.53
26865;BME280;40618;51.166;10.322;2023-12-04T02:22:38;97504.63;;;-4.16;88.79
26865;BME280;40618;51.166;10.322;2023-12-04T02:25:05;97491.09;;;-4.18;88.86
26865;BME280;40618;51.166;10.322;2023-12-04T02:27:49;97491.13;;;-4.16;88.57
26865;BME280;40618;51.166;10.322;2023-12-04T02:30:18;97496.19;;;-4.16;89.07
26865;BME280;40618;51.166;10.322;2023-12-04T02:32:47;97491.97;;;-4.16;89.07
26865;BME280;40618;51.166;10.322;2023-12-04T02:35:17;97487.78;;;-4.15;88.94
26865;BME280;40618;51.166;10.322;2023-12-04T02:37:46;97487.81;;;-4.14;88.62
26865;BME280;40618;51.166;10.322;2023-12-04T02:40:12;97484.38;;;-4.16;88.81
26865;BME280;40618;51.166;10.322;2023-12-04T02:42:39;97488.59;;;-4.16;88.88
26865;BME280;40618;51.166;10.322;2023-12-04T02:45:05;97493.66;;;-4.16;89.21
26865;BME280;40618;51.166;10.322;2023-12-04T02:47:31;97490.22;;;-4.18;88.57
26865;BME280;40618;51.166;10.322;2023-12-04T02:49:57;97482.63;;;-4.18;88.77
26865;BME280;40618;51.166;10.322;2023-12-04T02:52:23;97474.16;;;-4.20;88.95
26865;BME280;40618;51.166;10.322;2023-12-04T02:54:49;97475.03;;;-4.18;88.43
26865;BME280;40618;51.166;10.322;2023-12-04T02:57:14;97480.09;;;-4.18;88.95
26865;BME280;40618;51.166;10.322;2023-12-04T02:59:40;97469.16;;;-4.17;88.88
26865;BME280;40618;51.166;10.322;2023-12-04T03:02:06;97471.59;;;-4.22;88.87
26865;BME280;40618;51.166;10.322;2023-12-04T03:04:31;97466.53;;;-4.22;88.72
26865;BME280;40618;51.166;10.322;2023-12-04T03:06:57;97458.94;;;-4.22;88.51
26865;BME280;40618;51.166;10.322;2023-12-04T03:09:23;97451.31;;;-4.23;88.77
26865;BME280;40618;51.166;10.322;2023-12-04T03:11:49;97448.81;;;-4.22;88.89
26865;BME280;40618;51.166;10.322;2023-12-04T03:14:14;97447.88;;;-4.26;88.32
26865;BME280;40618;51.166;10.322;2023-12-04T03:16:40;97450.25;;;-4.32;88.29
26865;BME280;40618;51.166;10.322;2023-12-04T03:19:06;97437.50;;;-4.35;88.54
26865;BME280;40618;51.166;10.322;2023-12-04T03:21:31;97444.22;;;-4.35;88.56
26865;BME280;40618;51.166;10.322;2023-12-04T03:23:57;97441.72;;;-4.35;88.72
26865;BME280;40618;51.166;10.322;2023-12-04T03:26:23;97435.84;;;-4.34;89.12
26865;BME280;40618;51.166;10.322;2023-12-04T03:28:48;97438.34;;;-4.36;88.52
26865;BME280;40618;51.166;10.322;2023-12-04T03:31:14;97435.81;;;-4.36;88.80
26865;BME280;40618;51.166;10.322;2023-12-04T03:33:40;97434.97;;;-4.35;88.65
26865;BME280;40618;51.166;10.322;2023-12-04T03:36:06;97440.06;;;-4.33;88.54
26865;BME280;40618;51.166;10.322;2023-12-04T03:38:32;97435.84;;;-4.34;88.92
26865;BME280;40618;51.166;10.322;2023-12-04T03:40:57;97434.16;;;-4.34;88.51
26865;BME280;40618;51.166;10.322;2023-12-04T03:43:23;97429.94;;;-4.33;88.61
26865;BME280;40618;51.166;10.322;2023-12-04T03:45:48;97424.00;;;-4.35;88.96
26865;BME280;40618;51.166;10.322;2023-12-04T03:48:14;97421.41;;;-4.38;88.60
26865;BME280;40618;51.166;10.322;2023-12-04T03:50:40;97423.09;;;-4.37;88.41
26865;BME280;40618;51.166;10.322;2023-12-04T03:53:05;97418.91;;;-4.37;88.91
26865;BME280;40618;51.166;10.322;2023-12-04T03:55:31;97424.75;;;-4.39;88.50
26865;BME280;40618;51.166;10.322;2023-12-04T03:57:57;97418.84;;;-4.40;88.65
26865;BME280;40618;51.166;10.322;2023-12-04T04:00:23;97416.34;;;-4.38;88.85
26865;BME280;40618;51.166;10.322;2023-12-04T04:02:49;97422.16;;;-4.41;88.87
26865;BME280;40618;51.166;10.322;2023-12-04T04:05:15;97420.44;;;-4.42;88.68
26865;BME280;40618;51.166;10.322;2023-12-04T04:07:41;97413.66;;;-4.43;88.61
26865;BME280;40618;51.166;10.322;2023-12-04T04:10:07;97411.16;;;-4.43;88.32
26865;BME280;40618;51.166;10.322;2023-12-04T04:12:33;97405.28;;;-4.42;88.84
26865;BME280;40618;51.166;10.322;2023-12-04T04:14:59;97401.06;;;-4.42;88.42
26865;BME280;40618;51.166;10.322;2023-12-04T04:17:25;97401.88;;;-4.44;88.98
26865;BME280;40618;51.166;10.322;2023-12-04T04:19:52;97400.97;;;-4.46;88.68
26865;BME280;40618;51.166;10.322;2023-12-04T04:22:19;97394.94;;;-4.50;88.64
26865;BME280;40618;51.166;10.322;2023-12-04T04:24:45;97389.91;;;-4.50;88.60
26865;BME280;40618;51.166;10.322;2023-12-04T04:27:11;97386.47;;;-4.52;88.79
26865;BME280;40618;51.166;10.322;2023-12-04T04:29:37;97378.88;;;-4.53;88.60
26865;BME280;40618;51.166;10.322;2023-12-04T04:32:03;97384.00;;;-4.50;88.48
26865;BME280;40618;51.166;10.322;2023-12-04T04:34:28;97381.47;;;-4.50;88.93
26865;BME280;40618;51.166;10.322;2023-12-04T04:36:54;97378.97;;;-4.49;88.43
26865;BME280;40618;51.166;10.322;2023-12-04T04:39:20;97372.28;;;-4.48;88.58
26865;BME280;40618;51.166;10.322;2023-12-04T04:41:46;97366.38;;;-4.47;88.73
26865;BME280;40618;51.166;10.322;2023-12-04T04:44:11;97369.59;;;-4.53;88.64
26865;BME280;40618;51.166;10.322;2023-12-04T04:46:37;97374.66;;;-4.53;88.68
26865;BME280;40618;51.166;10.322;2023-12-04T04:49:02;97367.06;;;-4.53;88.27
26865;BME280;40618;51.166;10.322;2023-12-04T04:51:32;97365.34;;;-4.54;88.43
26865;BME280;40618;51.166;10.322;2023-12-04T04:53:59;97353.41;;;-4.60;88.19
26865;BME280;40618;51.166;10.322;2023-12-04T04:56:26;97353.38;;;-4.61;88.74
26865;BME280;40618;51.166;10.322;2023-12-04T04:58:51;97353.41;;;-4.60;88.29
26865;BME280;40618;51.166;10.322;2023-12-04T05:01:17;97355.16;;;-4.57;88.38
26865;BME280;40618;51.166;10.322;2023-12-04T05:03:42;97349.31;;;-4.56;88.36
26865;BME280;40618;51.166;10.322;2023-12-04T05:06:08;97354.41;;;-4.54;88.44
26865;BME280;40618;51.166;10.322;2023-12-04T05:08:34;97344.28;;;-4.54;88.84
26865;BME280;40618;51.166;10.322;2023-12-04T05:10:59;97345.13;;;-4.54;88.42
26865;BME280;40618;51.166;10.322;2023-12-04T05:13:25;97339.31;;;-4.51;88.44
26865;BME280;40618;51.166;10.322;2023-12-04T05:15:51;97334.25;;;-4.51;88.34
26865;BME280;40618;51.166;10.322;2023-12-04T05:18:17;97337.66;;;-4.51;88.77
26865;BME280;40618;51.166;10.322;2023-12-04T05:20:43;97341.00;;;-4.52;88.29
26865;BME280;40618;51.166;10.322;2023-12-04T05:23:08;97331.75;;;-4.50;88.39
26865;BME280;40618;51.166;10.322;2023-12-04T05:25:34;97340.25;;;-4.48;88.64
26865;BME280;40618;51.166;10.322;2023-12-04T05:27:59;97326.03;;;-4.44;88.89
26865;BME280;40618;51.166;10.322;2023-12-04T05:30:25;97324.44;;;-4.40;88.84
26865;BME280;40618;51.166;10.322;2023-12-04T05:32:51;97325.22;;;-4.43;88.71
26865;BME280;40618;51.166;10.322;2023-12-04T05:35:16;97326.09;;;-4.43;88.74
26865;BME280;40618;51.166;10.322;2023-12-04T05:37:42;97318.47;;;-4.44;88.23
26865;BME280;40618;51.166;10.322;2023-12-04T05:40:08;97333.66;;;-4.43;88.61
26865;BME280;40618;51.166;10.322;2023-12-04T05:42:36;97321.84;;;-4.44;88.38
26865;BME280;40618;51.166;10.322;2023-12-04T05:45:02;97311.81;;;-4.40;88.41
26865;BME280;40618;51.166;10.322;2023-12-04T05:47:28;97314.31;;;-4.40;88.68
26865;BME280;40618;51.166;10.322;2023-12-04T05:49:53;97312.59;;;-4.42;88.52
26865;BME280;40618;51.166;10.322;2023-12-04T05:52:19;97315.13;;;-4.42;88.49
26865;BME280;40618;51.166;10.322;2023-12-04T05:54:45;97314.31;;;-4.40;88.79
26865;BME280;40618;51.166;10.322;2023-12-04T05:57:11;97299.97;;;-4.42;88.43
26865;BME280;40618;51.166;10.322;2023-12-04T05:59:36;97304.22;;;-4.40;88.13
26865;BME280;40618;51.166;10.322;2023-12-04T06:02:02;97301.69;;;-4.40;88.54
26865;BME280;40618;51.166;10.322;2023-12-04T06:04:28;97294.91;;;-4.42;88.47
26865;BME280;40618;51.166;10.322;2023-12-04T06:06:53;97302.56;;;-4.40;88.80
26865;BME280;40618;51.166;10.322;2023-12-04T06:09:19;97294.97;;;-4.40;88.56
26865;BME280;40618;51.166;10.322;2023-12-04T06:11:45;97300.84;;;-4.41;88.78
26865;BME280;40618;51.166;10.322;2023-12-04T06:14:10;97305.09;;;-4.40;88.75
26865;BME280;40618;51.166;10.322;2023-12-04T06:16:36;97304.25;;;-4.39;88.90
26865;BME280;40618;51.166;10.322;2023-12-04T06:19:02;97300.88;;;-4.39;88.44
26865;BME280;40618;51.166;10.322;2023-12-04T06:21:30;97296.66;;;-4.39;88.69
26865;BME280;40618;51.166;10.322;2023-12-04T06:23:56;97296.63;;;-4.40;88.35
26865;BME280;40618;51.166;10.322;2023-12-04T06:26:22;97296.63;;;-4.40;88.50
26865;BME280;40618;51.166;10.322;2023-12-04T06:28:48;97299.16;;;-4.40;88.67
26865;BME280;40618;51.166;10.322;2023-12-04T06:31:15;97297.50;;;-4.40;88.66
26865;BME280;40618;51.166;10.322;2023-12-04T06:33:41;97297.53;;;-4.38;88.71
26865;BME280;40618;51.166;10.322;2023-12-04T06:36:08;97295.00;;;-4.38;88.69
26865;BME280;40618;51.166;10.322;2023-12-04T06:38:39;97298.41;;;-4.36;88.79
26865;BME280;40618;51.166;10.322;2023-12-04T06:41:06;97298.38;;;-4.38;88.47
26865;BME280;40618;51.166;10.322;2023-12-04T06:43:33;97303.44;;;-4.38;88.63
26865;BME280;40618;51.166;10.322;2023-12-04T06:45:59;97300.94;;;-4.36;88.76
26865;BME280;40618;51.166;10.322;2023-12-04T06:48:25;97297.63;;;-4.35;88.08
26865;BME280;40618;51.166;10.322;2023-12-04T06:50:51;97294.28;;;-4.34;88.39
26865;BME280;40618;51.166;10.322;2023-12-04T06:53:16;97293.44;;;-4.33;88.54
26865;BME280;40618;51.166;10.322;2023-12-04T06:55:42;97296.03;;;-4.32;88.48
26865;BME280;40618;51.166;10.322;2023-12-04T06:58:08;97292.66;;;-4.31;88.28
26865;BME280;40618;51.166;10.322;2023-12-04T07:00:33;97298.59;;;-4.30;88.75
26865;BME280;40618;51.166;10.322;2023-12-04T07:02:59;97291.88;;;-4.28;88.16
26865;BME280;40618;51.166;10.322;2023-12-04T07:05:25;97297.75;;;-4.29;88.22
26865;BME280;40618;51.166;10.322;2023-12-04T07:07:50;97293.56;;;-4.29;88.32
26865;BME280;40618;51.166;10.322;2023-12-04T07:10:16;97284.19;;;-4.33;88.32
26865;BME280;40618;51.166;10.322;2023-12-04T07:12:42;97295.91;;;-4.36;88.45
26865;BME280;40618;51.166;10.322;2023-12-04T07:15:09;97287.34;;;-4.42;87.77
26865;BME280;40618;51.166;10.322;2023-12-04T07:17:36;97283.06;;;-4.44;87.84
26865;BME280;40618;51.166;10.322;2023-12-04T07:20:03;97291.44;;;-4.47;88.17
26865;BME280;40618;51.166;10.322;2023-12-04T07:22:33;97282.88;;;-4.52;87.53
26865;BME280;40618;51.166;10.322;2023-12-04T07:24:59;97276.06;;;-4.54;88.13
26865;BME280;40618;51.166;10.322;2023-12-04T07:27:25;97278.50;;;-4.57;88.23
26865;BME280;40618;51.166;10.322;2023-12-04T07:29:50;97281.03;;;-4.57;87.72
26865;BME280;40618;51.166;10.322;2023-12-04T07:32:16;97283.53;;;-4.59;87.68
26865;BME280;40618;51.166;10.322;2023-12-04T07:34:43;97279.31;;;-4.59;88.13
26865;BME280;40618;51.166;10.322;2023-12-04T07:37:09;97277.63;;;-4.58;87.68
26865;BME280;40618;51.166;10.322;2023-12-04T07:39:34;97275.19;;;-4.56;88.17
26865;BME280;40618;51.166;10.322;2023-12-04T07:42:00;97275.19;;;-4.56;87.63
26865;BME280;40618;51.166;10.322;2023-12-04T07:44:26;97268.44;;;-4.56;87.87
26865;BME280;40618;51.166;10.322;2023-12-04T07:46:52;97270.16;;;-4.55;87.92
26865;BME280;40618;51.166;10.322;2023-12-04T07:49:17;97269.38;;;-4.52;88.00
26865;BME280;40618;51.166;10.322;2023-12-04T07:51:43;97261.88;;;-4.49;87.59
26865;BME280;40618;51.166;10.322;2023-12-04T07:54:08;97260.22;;;-4.47;87.81
26865;BME280;40618;51.166;10.322;2023-12-04T07:56:34;97260.25;;;-4.46;87.71
26865;BME280;40618;51.166;10.322;2023-12-04T07:59:00;97270.47;;;-4.43;87.91
26865;BME280;40618;51.166;10.322;2023-12-04T08:01:25;97270.50;;;-4.41;87.86
26865;BME280;40618;51.166;10.322;2023-12-04T08:03:51;97273.06;;;-4.39;88.02
26865;BME280;40618;51.166;10.322;2023-12-04T08:06:16;97262.19;;;-4.37;87.89
26865;BME280;40618;51.166;10.322;2023-12-04T08:08:44;97264.75;;;-4.35;87.88
26865;BME280;40618;51.166;10.322;2023-12-04T08:11:10;97258.06;;;-4.33;88.08
26865;BME280;40618;51.166;10.322;2023-12-04T08:13:38;97253.06;;;-4.32;87.76
26865;BME280;40618;51.166;10.322;2023-12-04T08:16:04;97249.69;;;-4.31;87.71
26865;BME280;40618;51.166;10.322;2023-12-04T08:18:30;97253.16;;;-4.27;87.77
26865;BME280;40618;51.166;10.322;2023-12-04T08:20:56;97242.31;;;-4.23;87.98
26865;BME280;40618;51.166;10.322;2023-12-04T08:23:24;97241.50;;;-4.22;87.61
26865;BME280;40618;51.166;10.322;2023-12-04T08:25:50;97238.19;;;-4.19;87.61
26865;BME280;40618;51.166;10.322;2023-12-04T08:28:16;97239.88;;;-4.18;87.52
26865;BME280;40618;51.166;10.322;2023-12-04T08:30:41;97231.50;;;-4.16;87.92
26865;BME280;40618;51.166;10.322;2023-12-04T08:33:07;97222.28;;;-4.15;87.54
26865;BME280;40618;51.166;10.322;2023-12-04T08:35:32;97231.50;;;-4.16;87.77
26865;BME280;40618;51.166;10.322;2023-12-04T08:37:58;97230.78;;;-4.12;88.11
26865;BME280;40618;51.166;10.322;2023-12-04T08:40:24;97233.41;;;-4.09;87.74
26865;BME280;40618;51.166;10.322;2023-12-04T08:42:50;97230.06;;;-4.06;87.34
26865;BME280;40618;51.166;10.322;2023-12-04T08:45:15;97232.69;;;-4.03;87.80
26865;BME280;40618;51.166;10.322;2023-12-04T08:47:41;97236.97;;;-4.00;87.63
26865;BME280;40618;51.166;10.322;2023-12-04T08:50:07;97230.19;;;-4.01;87.46
26865;BME280;40618;51.166;10.322;2023-12-04T08:52:32;97232.72;;;-4.01;87.57
26865;BME280;40618;51.166;10.322;2023-12-04T08:54:59;97226.84;;;-4.00;87.64
26865;BME280;40618;51.166;10.322;2023-12-04T08:57:25;97237.06;;;-3.96;87.30
26865;BME280;40618;51.166;10.322;2023-12-04T08:59:50;97231.19;;;-3.95;87.35
26865;BME280;40618;51.166;10.322;2023-12-04T09:02:16;97239.63;;;-3.94;87.29
26865;BME280;40618;51.166;10.322;2023-12-04T09:04:42;97243.88;;;-3.93;87.41
26865;BME280;40618;51.166;10.322;2023-12-04T09:07:08;97234.63;;;-3.91;87.37
26865;BME280;40618;51.166;10.322;2023-12-04T09:09:34;97238.91;;;-3.88;87.66
26865;BME280;40618;51.166;10.322;2023-12-04T09:11:59;97242.38;;;-3.85;87.71
26865;BME280;40618;51.166;10.322;2023-12-04T09:14:25;97241.63;;;-3.81;87.52
26865;BME280;40618;51.166;10.322;2023-12-04T09:16:53;97231.59;;;-3.76;87.35
26865;BME280;40618;51.166;10.322;2023-12-04T09:19:18;97232.53;;;-3.72;87.42
26865;BME280;40618;51.166;10.322;2023-12-04T09:21:44;97228.41;;;-3.69;87.26
26865;BME280;40618;51.166;10.322;2023-12-04T09:24:10;97233.50;;;-3.67;87.19
26865;BME280;40618;51.166;10.322;2023-12-04T09:26:36;97233.56;;;-3.64;87.44
26865;BME280;40618;51.166;10.322;2023-12-04T09:29:01;97243.66;;;-3.66;87.01
26865;BME280;40618;51.166;10.322;2023-12-04T09:31:27;97236.09;;;-3.64;87.17
26865;BME280;40618;51.166;10.322;2023-12-04T09:33:53;97232.78;;;-3.62;87.30
26865;BME280;40618;51.166;10.322;2023-12-04T09:36:19;97238.69;;;-3.60;87.17
26865;BME280;40618;51.166;10.322;2023-12-04T09:38:44;97241.28;;;-3.58;87.15
26865;BME280;40618;51.166;10.322;2023-12-04T09:41:10;97240.47;;;-3.55;87.25
26865;BME280;40618;51.166;10.322;2023-12-04T09:43:37;97235.50;;;-3.52;87.33
26865;BME280;40618;51.166;10.322;2023-12-04T09:46:04;97236.38;;;-3.50;87.49
26865;BME280;40618;51.166;10.322;2023-12-04T09:48:31;97228.00;;;-3.48;87.58
26865;BME280;40618;51.166;10.322;2023-12-04T09:50:57;97224.75;;;-3.42;86.95
26865;BME280;40618;51.166;10.322;2023-12-04T09:53:26;97218.06;;;-3.38;87.26
26865;BME280;40618;51.166;10.322;2023-12-04T09:55:53;97214.75;;;-3.36;87.20
26865;BME280;40618;51.166;10.322;2023-12-04T09:58:23;97209.75;;;-3.33;87.28
26865;BME280;40618;51.166;10.322;2023-12-04T10:00:52;97194.59;;;-3.31;87.43
26865;BME280;40618;51.166;10.322;2023-12-04T10:03:20;97200.56;;;-3.28;87.19
26865;BME280;40618;51.166;10.322;2023-12-04T10:05:46;97190.50;;;-3.25;87.31
26865;BME280;40618;51.166;10.322;2023-12-04T10:08:13;97189.72;;;-3.22;87.17
26865;BME280;40618;51.166;10.322;2023-12-04T10:10:39;97189.72;;;-3.22;87.23
26865;BME280;40618;51.166;10.322;2023-12-04T10:13:05;97179.63;;;-3.19;87.28
26865;BME280;40618;51.166;10.322;2023-12-04T10:15:31;97175.44;;;-3.18;86.81
26865;BME280;40618;51.166;10.322;2023-12-04T10:17:57;97166.97;;;-3.19;86.63
26865;BME280;40618;51.166;10.322;2023-12-04T10:20:23;97161.13;;;-3.16;87.16
26865;BME280;40618;51.166;10.322;2023-12-04T10:22:56;97147.66;;;-3.14;87.21
26865;BME280;40618;51.166;10.322;2023-12-04T10:25:25;97150.25;;;-3.11;87.25
26865;BME280;40618;51.166;10.322;2023-12-04T10:27:54;97151.97;;;-3.08;87.06
26865;BME280;40618;51.166;10.322;2023-12-04T10:30:41;97132.56;;;-3.08;86.96
26865;BME280;40618;51.166;10.322;2023-12-04T10:33:07;97125.03;;;-3.04;87.20
26865;BME280;40618;51.166;10.322;2023-12-04T10:35:34;97124.19;;;-3.03;86.96
26865;BME280;40618;51.166;10.322;2023-12-04T10:38:02;97123.38;;;-3.02;86.79
26865;BME280;40618;51.166;10.322;2023-12-04T10:40:30;97119.22;;;-2.99;86.96
26865;BME280;40618;51.166;10.322;2023-12-04T10:43:11;97112.50;;;-2.97;86.96
26865;BME280;40618;51.166;10.322;2023-12-04T10:45:40;97105.75;;;-2.98;86.92
26865;BME280;40618;51.166;10.322;2023-12-04T10:48:08;97100.72;;;-2.95;86.93
26865;BME280;40618;51.166;10.322;2023-12-04T10:50:40;97094.84;;;-2.94;86.96
26865;BME280;40618;51.166;10.322;2023-12-04T10:53:08;97088.91;;;-2.93;86.83
26865;BME280;40618;51.166;10.322;2023-12-04T10:55:36;97085.59;;;-2.90;86.80
26865;BME280;40618;51.166;10.322;2023-12-04T10:58:05;97077.19;;;-2.87;86.77
26865;BME280;40618;51.166;10.322;2023-12-04T11:00:33;97075.53;;;-2.87;86.85
26865;BME280;40618;51.166;10.322;2023-12-04T11:03:10;97066.28;;;-2.83;86.96
26865;BME280;40618;51.166;10.322;2023-12-04T11:05:43;97065.47;;;-2.81;86.64
26865;BME280;40618;51.166;10.322;2023-12-04T11:08:13;97064.66;;;-2.80;86.63
26865;BME280;40618;51.166;10.322;2023-12-04T11:13:29;97060.41;;;-2.81;86.47
26865;BME280;40618;51.166;10.322;2023-12-04T11:16:01;97052.81;;;-2.79;86.71
26865;BME280;40618;51.166;10.322;2023-12-04T11:18:31;97056.19;;;-2.80;86.68
26865;BME280;40618;51.166;10.322;2023-12-04T11:21:08;97045.19;;;-2.81;86.78
26865;BME280;40618;51.166;10.322;2023-12-04T11:23:35;97045.19;;;-2.81;86.67
26865;BME280;40618;51.166;10.322;2023-12-04T11:26:04;97039.34;;;-2.78;86.46
26865;BME280;40618;51.166;10.322;2023-12-04T11:28:32;97029.25;;;-2.75;86.45
26865;BME280;40618;51.166;10.322;2023-12-04T11:30:59;97031.81;;;-2.72;86.54
26865;BME280;40618;51.166;10.322;2023-12-04T11:33:34;97029.31;;;-2.70;86.75
26865;BME280;40618;51.166;10.322;2023-12-04T11:36:13;97026.78;;;-2.70;86.69
26865;BME280;40618;51.166;10.322;2023-12-04T11:38:45;97026.75;;;-2.72;86.85
26865;BME280;40618;51.166;10.322;2023-12-04T11:41:24;97024.25;;;-2.70;86.34
26865;BME280;40618;51.166;10.322;2023-12-04T11:43:51;97017.47;;;-2.73;86.67
26865;BME280;40618;51.166;10.322;2023-12-04T11:46:38;97005.63;;;-2.73;86.61
26865;BME280;40618;51.166;10.322;2023-12-04T11:49:27;97012.41;;;-2.72;86.64
26865;BME280;40618;51.166;10.322;2023-12-04T11:51:55;97003.13;;;-2.69;86.42
26865;BME280;40618;51.166;10.322;2023-12-04T11:54:22;97005.72;;;-2.66;86.62
26865;BME280;40618;51.166;10.322;2023-12-04T11:59:22;97005.78;;;-2.63;86.55
26865;BME280;40618;51.166;10.322;2023-12-04T12:01:50;97002.41;;;-2.64;86.40
26865;BME280;40618;51.166;10.322;2023-12-04T12:04:18;96999.00;;;-2.63;86.46
26865;BME280;40618;51.166;10.322;2023-12-04T12:06:45;97005.78;;;-2.62;86.36
26865;BME280;40618;51.166;10.322;2023-12-04T12:09:11;97003.28;;;-2.60;86.63
26865;BME280;40618;51.166;10.322;2023-12-04T12:11:37;96998.22;;;-2.57;86.51
26865;BME280;40618;51.166;10.322;2023-12-04T12:14:05;96998.28;;;-2.56;86.44
26865;BME280;40618;51.166;10.322;2023-12-04T12:16:33;96988.16;;;-2.54;86.28
26865;BME280;40618;51.166;10.322;2023-12-04T12:19:01;96979.69;;;-2.53;86.44
26865;BME280;40618;51.166;10.322;2023-12-04T12:21:27;96970.47;;;-2.49;86.45
26865;BME280;40618;51.166;10.322;2023-12-04T12:23:54;96974.72;;;-2.48;86.75
26865;BME280;40618;51.166;10.322;2023-12-04T12:26:20;96962.06;;;-2.47;86.82
26865;BME280;40618;51.166;10.322;2023-12-04T12:28:45;96964.59;;;-2.47;86.76
26865;BME280;40618;51.166;10.322;2023-12-04T12:31:11;96951.09;;;-2.46;86.56
26865;BME280;40618;51.166;10.322;2023-12-04T12:33:37;96950.22;;;-2.46;86.52
26865;BME280;40618;51.166;10.322;2023-12-04T12:36:03;96943.47;;;-2.47;86.38
26865;BME280;40618;51.166;10.322;2023-12-04T12:38:32;96944.28;;;-2.48;86.35
26865;BME280;40618;51.166;10.322;2023-12-04T12:41:06;96940.88;;;-2.49;86.61
26865;BME280;40618;51.166;10.322;2023-12-04T12:43:33;96930.72;;;-2.52;86.52
26865;BME280;40618;51.166;10.322;2023-12-04T12:45:59;96933.25;;;-2.52;86.56
26865;BME280;40618;51.166;10.322;2023-12-04T12:48:27;96927.34;;;-2.51;86.33
26865;BME280;40618;51.166;10.322;2023-12-04T12:50:54;96924.78;;;-2.54;86.45
26865;BME280;40618;51.166;10.322;2023-12-04T12:53:20;96929.84;;;-2.56;86.65